createdAt,value
2019-05-01T00:02:23.565Z,67.70
2019-05-01T00:05:29.158Z,67.70
2019-05-01T00:08:30.477Z,67.50
2019-05-01T00:11:31.938Z,67.70
2019-05-01T00:14:33.303Z,67.60
2019-05-01T00:17:34.988Z,67.70
2019-05-01T00:20:36.532Z,67.70
2019-05-01T00:23:37.936Z,67.70
2019-05-01T00:26:39.367Z,67.90
2019-05-01T00:29:40.793Z,68.10
2019-05-01T00:32:42.177Z,68.30
2019-05-01T00:35:43.602Z,68.20
2019-05-01T00:38:44.997Z,68.20
2019-05-01T00:41:46.436Z,68.20
2019-05-01T00:44:47.746Z,68.10
2019-05-01T00:47:49.109Z,68.10
2019-05-01T00:50:50.525Z,68.10
2019-05-01T00:53:51.895Z,68.00
2019-05-01T00:57:02.284Z,68.10
2019-05-01T01:00:28.981Z,68.30
2019-05-01T01:03:30.399Z,68.50
2019-05-01T01:06:31.752Z,68.60
2019-05-01T01:09:33.178Z,68.80
2019-05-01T01:12:34.595Z,68.80
2019-05-01T01:15:37.113Z,68.70
2019-05-01T01:18:38.493Z,68.70
2019-05-01T01:21:39.828Z,68.70
2019-05-01T01:24:41.145Z,68.80
2019-05-01T01:27:42.495Z,68.50
2019-05-01T01:30:55.659Z,68.70
2019-05-01T01:33:48.419Z,69.00
2019-05-01T01:36:49.784Z,69.20
2019-05-01T01:39:51.204Z,69.20
2019-05-01T01:42:54.465Z,69.20
2019-05-01T01:45:57.051Z,69.30
2019-05-01T01:48:58.467Z,69.40
2019-05-01T01:51:59.964Z,69.30
2019-05-01T01:55:01.293Z,69.20
2019-05-01T01:58:03.016Z,69.30
2019-05-01T02:01:23.610Z,69.40
2019-05-01T02:04:47.023Z,69.60
2019-05-01T02:07:48.653Z,69.80
2019-05-01T02:10:49.969Z,70.60
2019-05-01T02:13:55.141Z,69.90
2019-05-01T02:16:56.504Z,69.70
2019-05-01T02:19:57.817Z,69.60
2019-05-01T02:22:59.190Z,69.70
2019-05-01T02:26:02.488Z,69.70
2019-05-01T02:29:25.555Z,69.90
2019-05-01T02:32:29.704Z,69.60
2019-05-01T02:35:32.123Z,69.80
2019-05-01T02:38:35.987Z,69.70
2019-05-01T02:41:41.608Z,69.60
2019-05-01T02:44:48.403Z,69.50
2019-05-01T02:47:50.250Z,69.40
2019-05-01T02:50:54.849Z,69.30
2019-05-01T02:53:57.065Z,69.60
2019-05-01T02:57:04.316Z,69.80
2019-05-01T03:00:06.734Z,69.70
2019-05-01T03:03:08.136Z,69.60
2019-05-01T03:06:09.444Z,69.60
2019-05-01T03:09:10.832Z,69.60
2019-05-01T03:12:13.509Z,69.70
2019-05-01T03:15:15.160Z,70.30
2019-05-01T03:18:25.458Z,69.60
2019-05-01T03:21:44.133Z,69.60
2019-05-01T03:24:45.809Z,69.60
2019-05-01T03:27:47.229Z,69.90
2019-05-01T03:30:48.880Z,69.80
2019-05-01T03:33:51.312Z,69.80
2019-05-01T03:36:52.597Z,69.80
2019-05-01T03:39:55.201Z,69.80
2019-05-01T03:42:57.136Z,69.70
2019-05-01T03:45:58.697Z,69.70
2019-05-01T03:49:00.081Z,69.70
2019-05-01T03:52:01.602Z,70.00
2019-05-01T03:55:03.136Z,70.30
2019-05-01T03:58:05.280Z,70.20
2019-05-01T04:01:14.470Z,70.30
2019-05-01T04:04:23.944Z,70.30
2019-05-01T04:07:25.391Z,70.40
2019-05-01T04:10:26.813Z,70.50
2019-05-01T04:13:28.179Z,70.30
2019-05-01T04:16:30.477Z,70.50
2019-05-01T04:19:31.928Z,70.50
2019-05-01T04:22:33.333Z,71.00
2019-05-01T04:25:34.786Z,71.30
2019-05-01T04:29:07.376Z,71.10
2019-05-01T04:32:23.755Z,71.10
2019-05-01T04:35:43.279Z,70.80
2019-05-01T04:38:44.846Z,71.40
2019-05-01T04:41:46.165Z,70.70
2019-05-01T04:44:47.498Z,70.60
2019-05-01T04:47:48.984Z,70.80
2019-05-01T04:50:50.346Z,70.80
2019-05-01T04:53:52.458Z,70.70
2019-05-01T04:56:54.344Z,70.70
2019-05-01T04:59:55.685Z,70.70
2019-05-01T05:03:05.380Z,70.70
2019-05-01T05:06:08.259Z,70.70
2019-05-01T05:09:09.695Z,70.70
2019-05-01T05:12:17.719Z,70.60
2019-05-01T05:15:50.683Z,70.70
2019-05-01T05:18:52.274Z,70.70
2019-05-01T05:21:53.815Z,70.80
2019-05-01T05:24:55.673Z,71.60
2019-05-01T05:27:58.509Z,70.90
2019-05-01T05:31:00.370Z,70.70
2019-05-01T05:34:03.827Z,70.50
2019-05-01T05:37:16.141Z,70.10
2019-05-01T05:40:19.636Z,71.10
2019-05-01T05:43:21.377Z,70.60
2019-05-01T05:46:22.711Z,70.70
2019-05-01T05:49:24.525Z,70.60
2019-05-01T05:52:36.545Z,70.50
2019-05-01T05:55:52.649Z,70.30
2019-05-01T05:58:58.661Z,70.30
2019-05-01T06:02:10.755Z,70.40
2019-05-01T06:05:26.355Z,70.40
2019-05-01T06:08:31.094Z,70.30
2019-05-01T06:12:05.004Z,70.90
2019-05-01T06:15:22.325Z,70.10
2019-05-01T06:18:49.024Z,69.80
2019-05-01T06:22:11.701Z,69.40
2019-05-01T06:25:25.071Z,69.20
2019-05-01T06:28:26.571Z,68.90
2019-05-01T06:31:28.893Z,68.40
2019-05-01T06:34:30.287Z,68.20
2019-05-01T06:38:02.320Z,66.90
2019-05-01T06:41:04.962Z,66.60
2019-05-01T06:44:12.359Z,66.00
2019-05-01T06:47:31.929Z,66.10
2019-05-01T06:50:41.551Z,66.10
2019-05-01T06:53:41.537Z,66.20
2019-05-01T06:56:43.747Z,66.00
2019-05-01T06:59:45.982Z,65.90
2019-05-01T07:02:50.123Z,66.50
2019-05-01T07:05:54.530Z,66.10
2019-05-01T07:08:56.023Z,64.80
2019-05-01T07:11:58.896Z,64.70
2019-05-01T07:15:00.882Z,64.70
2019-05-01T07:18:02.888Z,64.70
2019-05-01T07:21:04.346Z,64.40
2019-05-01T07:24:06.025Z,63.80
2019-05-01T07:27:07.379Z,63.30
2019-05-01T07:30:25.287Z,63.10
2019-05-01T07:33:26.669Z,62.20
2019-05-01T07:36:28.283Z,61.90
2019-05-01T07:39:32.662Z,61.70
2019-05-01T07:42:34.796Z,61.10
2019-05-01T07:46:02.380Z,60.70
2019-05-01T07:49:04.272Z,60.10
2019-05-01T07:52:05.636Z,59.70
2019-05-01T07:55:12.992Z,59.20
2019-05-01T07:58:15.838Z,59.20
2019-05-01T08:01:26.499Z,58.90
2019-05-01T08:04:35.982Z,58.60
2019-05-01T08:07:32.305Z,57.80
2019-05-01T08:10:34.621Z,57.40
2019-05-01T08:13:36.340Z,57.40
2019-05-01T08:16:42.077Z,57.20
2019-05-01T08:19:47.113Z,56.70
2019-05-01T08:22:48.510Z,56.20
2019-05-01T08:25:49.929Z,55.50
2019-05-01T08:29:09.104Z,55.70
2019-05-01T08:32:33.809Z,56.30
2019-05-01T08:35:36.544Z,55.60
2019-05-01T08:38:37.385Z,55.40
2019-05-01T08:41:38.747Z,55.20
2019-05-01T08:44:53.219Z,55.30
2019-05-01T08:48:03.053Z,55.00
2019-05-01T08:51:04.438Z,54.80
2019-05-01T08:54:06.911Z,53.80
2019-05-01T08:57:08.284Z,53.50
2019-05-01T09:00:12.500Z,52.60
2019-05-01T09:03:18.599Z,53.00
2019-05-01T09:06:17.006Z,52.70
2019-05-01T09:09:18.395Z,52.80
2019-05-01T09:12:19.789Z,52.70
2019-05-01T09:15:21.193Z,51.90
2019-05-01T09:18:22.579Z,51.50
2019-05-01T09:21:23.961Z,51.30
2019-05-01T09:24:27.865Z,51.20
2019-05-01T09:27:36.683Z,51.30
2019-05-01T09:30:43.008Z,50.80
2019-05-01T09:33:44.419Z,50.30
2019-05-01T09:36:45.749Z,49.80
2019-05-01T09:39:47.563Z,50.00
2019-05-01T09:42:48.933Z,49.40
2019-05-01T09:45:50.920Z,49.80
2019-05-01T09:48:53.455Z,50.30
2019-05-01T09:52:32.026Z,51.60
2019-05-01T09:55:47.362Z,50.80
2019-05-01T09:58:48.734Z,50.70
2019-05-01T10:01:50.126Z,50.80
2019-05-01T10:04:51.554Z,49.70
2019-05-01T10:07:52.950Z,49.20
2019-05-01T10:10:54.341Z,49.60
2019-05-01T10:13:58.419Z,49.60
2019-05-01T10:16:58.845Z,49.40
2019-05-01T10:20:00.201Z,48.80
2019-05-01T10:23:01.628Z,48.40
2019-05-01T10:26:05.125Z,49.10
2019-05-01T10:29:26.010Z,47.00
2019-05-01T10:32:39.127Z,46.30
2019-05-01T10:36:01.205Z,46.50
2019-05-01T10:39:05.767Z,46.50
2019-05-01T10:42:07.697Z,46.50
2019-05-01T10:45:09.105Z,46.40
2019-05-01T10:48:10.486Z,46.90
2019-05-01T10:51:11.842Z,46.00
2019-05-01T10:54:13.234Z,44.70
2019-05-01T10:57:14.574Z,44.60
2019-05-01T11:00:16.236Z,43.20
2019-05-01T11:03:17.667Z,41.90
2019-05-01T11:06:19.020Z,41.10
2019-05-01T11:09:20.396Z,40.90
2019-05-01T11:12:21.752Z,41.20
2019-05-01T11:15:23.120Z,41.00
2019-05-01T11:18:24.556Z,41.60
2019-05-01T11:21:26.008Z,41.00
2019-05-01T11:24:27.386Z,40.90
2019-05-01T11:27:28.748Z,41.50
2019-05-01T11:30:30.167Z,42.00
2019-05-01T11:33:57.497Z,42.50
2019-05-01T11:37:16.964Z,42.90
2019-05-01T11:40:39.546Z,43.30
2019-05-01T11:43:40.899Z,44.40
2019-05-01T11:46:42.290Z,43.60
2019-05-01T11:49:43.648Z,43.30
2019-05-01T11:52:45.049Z,43.50
2019-05-01T11:55:46.429Z,42.70
2019-05-01T11:58:47.793Z,42.50
2019-05-01T12:01:49.169Z,42.20
2019-05-01T12:04:50.543Z,42.20
2019-05-01T12:07:51.926Z,41.50
2019-05-01T12:10:53.371Z,41.90
2019-05-01T12:13:54.752Z,41.60
2019-05-01T12:17:14.886Z,41.70
2019-05-01T12:20:16.852Z,41.60
2019-05-01T12:23:18.227Z,40.70
2019-05-01T12:26:19.605Z,40.30
2019-05-01T12:29:20.993Z,41.20
2019-05-01T12:32:22.378Z,40.90
2019-05-01T12:35:23.754Z,40.00
2019-05-01T12:38:25.101Z,40.20
2019-05-01T12:41:44.649Z,40.40
2019-05-01T12:44:45.998Z,40.30
2019-05-01T12:47:58.981Z,39.60
2019-05-01T12:51:00.358Z,39.80
2019-05-01T12:54:10.720Z,39.70
2019-05-01T12:57:12.078Z,39.90
2019-05-01T13:00:15.861Z,39.50
2019-05-01T13:03:17.248Z,39.20
2019-05-01T13:06:18.621Z,38.80
2019-05-01T13:09:20.011Z,39.10
2019-05-01T13:12:21.373Z,39.50
2019-05-01T13:15:22.745Z,39.00
2019-05-01T13:18:24.125Z,38.80
2019-05-01T13:21:25.477Z,38.50
2019-05-01T13:24:26.854Z,38.20
2019-05-01T13:27:34.989Z,39.10
2019-05-01T13:30:49.578Z,38.90
2019-05-01T13:33:52.048Z,39.20
2019-05-01T13:37:02.874Z,38.20
2019-05-01T13:39:57.555Z,38.10
2019-05-01T13:42:58.903Z,38.50
2019-05-01T13:46:00.289Z,38.60
2019-05-01T13:49:01.623Z,39.00
2019-05-01T13:52:03.009Z,38.80
2019-05-01T13:55:04.870Z,39.00
2019-05-01T13:58:06.246Z,39.10
2019-05-01T14:01:07.695Z,38.50
2019-05-01T14:04:10.427Z,38.90
2019-05-01T14:07:16.708Z,38.30
2019-05-01T14:10:15.171Z,38.70
2019-05-01T14:13:16.548Z,38.80
2019-05-01T14:16:17.899Z,38.30
2019-05-01T14:19:19.360Z,38.40
2019-05-01T14:22:51.879Z,38.60
2019-05-01T14:26:06.393Z,38.70
2019-05-01T14:29:07.780Z,37.70
2019-05-01T14:32:09.147Z,37.80
2019-05-01T14:35:12.860Z,37.50
2019-05-01T14:38:14.225Z,37.50
2019-05-01T14:41:15.602Z,37.50
2019-05-01T14:44:16.971Z,37.50
2019-05-01T14:47:19.391Z,38.30
2019-05-01T14:50:20.772Z,38.50
2019-05-01T14:53:22.112Z,37.90
2019-05-01T14:56:23.484Z,38.10
2019-05-01T14:59:24.905Z,37.20
2019-05-01T15:02:26.299Z,36.90
2019-05-01T15:05:27.689Z,36.80
2019-05-01T15:08:29.045Z,37.10
2019-05-01T15:11:30.427Z,36.20
2019-05-01T15:14:54.800Z,36.40
2019-05-01T15:18:04.401Z,36.10
2019-05-01T15:21:05.857Z,36.30
2019-05-01T15:24:07.430Z,36.40
2019-05-01T15:27:08.820Z,36.40
2019-05-01T15:30:14.542Z,36.20
2019-05-01T15:33:15.915Z,36.30
2019-05-01T15:36:17.259Z,35.80
2019-05-01T15:39:28.508Z,36.40
2019-05-01T15:42:46.830Z,36.20
2019-05-01T15:45:48.184Z,35.90
2019-05-01T15:48:49.560Z,36.10
2019-05-01T15:51:50.906Z,36.10
2019-05-01T15:54:52.290Z,35.90
2019-05-01T15:57:53.662Z,35.80
2019-05-01T16:00:55.030Z,36.50
2019-05-01T16:03:56.399Z,35.70
2019-05-01T16:06:57.751Z,36.00
2019-05-01T16:09:59.185Z,36.60
2019-05-01T16:13:02.207Z,36.70
2019-05-01T16:16:03.713Z,36.50
2019-05-01T16:19:05.191Z,37.00
2019-05-01T16:22:06.675Z,37.30
2019-05-01T16:25:08.376Z,37.60
2019-05-01T16:28:09.734Z,37.90
2019-05-01T16:31:11.201Z,37.80
2019-05-01T16:34:13.725Z,38.20
2019-05-01T16:37:15.098Z,38.30
2019-05-01T16:40:34.049Z,38.50
2019-05-01T16:43:35.464Z,38.80
2019-05-01T16:46:36.975Z,38.40
2019-05-01T16:49:38.432Z,37.80
2019-05-01T16:52:40.700Z,38.10
2019-05-01T16:55:43.623Z,38.20
2019-05-01T16:58:45.040Z,38.20
2019-05-01T17:02:01.950Z,38.40
2019-05-01T17:05:31.276Z,38.80
2019-05-01T17:08:50.536Z,39.10
2019-05-01T17:11:51.922Z,39.30
2019-05-01T17:14:53.305Z,39.50
2019-05-01T17:17:54.644Z,39.40
2019-05-01T17:20:56.035Z,39.50
2019-05-01T17:23:57.391Z,39.60
2019-05-01T17:26:58.776Z,39.70
2019-05-01T17:30:00.209Z,39.70
2019-05-01T17:33:01.597Z,39.70
2019-05-01T17:36:02.991Z,39.50
2019-05-01T17:39:05.716Z,39.60
2019-05-01T17:42:08.836Z,39.70
2019-05-01T17:45:10.278Z,39.80
2019-05-01T17:48:11.784Z,40.20
2019-05-01T17:51:13.174Z,40.60
2019-05-01T17:54:14.537Z,40.80
2019-05-01T17:57:15.918Z,41.20
2019-05-01T18:00:36.502Z,41.50
2019-05-01T18:03:48.718Z,41.80
2019-05-01T18:06:50.992Z,41.70
2019-05-01T18:09:55.688Z,42.20
2019-05-01T18:12:55.413Z,42.50
2019-05-01T18:15:56.777Z,42.90
2019-05-01T18:18:58.209Z,43.30
2019-05-01T18:22:10.242Z,43.60
2019-05-01T18:25:28.104Z,43.90
2019-05-01T18:28:37.516Z,44.30
2019-05-01T18:31:39.916Z,44.40
2019-05-01T18:34:41.263Z,44.50
2019-05-01T18:37:49.083Z,44.90
2019-05-01T18:40:54.663Z,45.20
2019-05-01T18:43:56.045Z,45.70
2019-05-01T18:46:57.376Z,45.80
2019-05-01T18:49:58.847Z,46.50
2019-05-01T18:53:00.221Z,46.10
2019-05-01T18:56:05.517Z,46.20
2019-05-01T18:59:04.623Z,45.90
2019-05-01T19:02:06.178Z,46.40
2019-05-01T19:05:08.732Z,46.40
2019-05-01T19:08:11.054Z,46.80
2019-05-01T19:11:13.309Z,47.30
2019-05-01T19:14:15.948Z,47.90
2019-05-01T19:17:17.334Z,48.10
2019-05-01T19:20:18.796Z,48.30
2019-05-01T19:23:22.250Z,48.40
2019-05-01T19:26:23.742Z,48.50
2019-05-01T19:29:26.659Z,48.80
2019-05-01T19:32:28.313Z,48.70
2019-05-01T19:35:33.973Z,48.60
2019-05-01T19:38:34.801Z,48.80
2019-05-01T19:41:35.884Z,48.90
2019-05-01T19:44:37.378Z,49.00
2019-05-01T19:47:38.772Z,48.80
2019-05-01T19:50:47.946Z,49.00
2019-05-01T19:53:46.466Z,49.40
2019-05-01T19:56:46.689Z,49.60
2019-05-01T19:59:48.036Z,50.00
2019-05-01T20:02:49.389Z,50.30
2019-05-01T20:05:50.870Z,50.70
2019-05-01T20:08:52.330Z,50.90
2019-05-01T20:11:53.683Z,51.10
2019-05-01T20:14:55.134Z,51.20
2019-05-01T20:17:59.977Z,51.40
2019-05-01T20:21:01.354Z,51.70
2019-05-01T20:24:04.292Z,52.00
2019-05-01T20:27:06.299Z,52.60
2019-05-01T20:30:08.079Z,52.50
2019-05-01T20:33:09.518Z,52.70
2019-05-01T20:36:10.989Z,53.40
2019-05-01T20:39:12.484Z,53.40
2019-05-01T20:42:13.959Z,52.90
2019-05-01T20:45:18.344Z,52.80
2019-05-01T20:48:23.552Z,52.50
2019-05-01T20:51:21.783Z,52.30
2019-05-01T20:54:23.233Z,52.50
2019-05-01T20:57:29.807Z,52.70
2019-05-01T21:00:31.350Z,52.90
2019-05-01T21:03:33.136Z,53.00
2019-05-01T21:06:39.083Z,53.30
2019-05-01T21:09:47.593Z,53.50
2019-05-01T21:12:46.000Z,53.50
2019-05-01T21:15:47.588Z,53.80
2019-05-01T21:18:49.052Z,54.00
2019-05-01T21:21:50.562Z,54.30
2019-05-01T21:24:53.294Z,54.50
2019-05-01T21:27:54.741Z,54.30
2019-05-01T21:30:56.239Z,54.10
2019-05-01T21:33:57.647Z,54.80
2019-05-01T21:36:59.095Z,54.40
2019-05-01T21:40:02.598Z,54.40
2019-05-01T21:43:03.863Z,54.40
2019-05-01T21:46:06.365Z,54.50
2019-05-01T21:49:07.749Z,54.60
2019-05-01T21:52:09.169Z,55.00
2019-05-01T21:55:10.593Z,55.30
2019-05-01T21:58:12.005Z,55.10
2019-05-01T22:01:13.650Z,55.00
2019-05-01T22:04:15.144Z,55.20
2019-05-01T22:07:16.542Z,55.30
2019-05-01T22:10:21.610Z,55.40
2019-05-01T22:13:24.337Z,55.40
2019-05-01T22:16:27.492Z,55.40
2019-05-01T22:19:29.029Z,56.00
2019-05-01T22:22:45.959Z,56.70
2019-05-01T22:25:51.132Z,56.50
2019-05-01T22:28:56.129Z,56.50
2019-05-01T22:32:16.598Z,56.30
2019-05-01T22:35:23.636Z,56.60
2019-05-01T22:38:25.015Z,56.40
2019-05-01T22:41:26.372Z,56.20
2019-05-01T22:44:27.808Z,56.30
2019-05-01T22:47:30.107Z,56.20
2019-05-01T22:50:31.483Z,56.20
2019-05-01T22:53:32.868Z,56.90
2019-05-01T22:56:34.271Z,57.20
2019-05-01T22:59:35.637Z,57.20
2019-05-01T23:02:40.623Z,57.10
2019-05-01T23:05:42.065Z,57.20
2019-05-01T23:08:43.494Z,57.60
2019-05-01T23:11:47.252Z,57.50
2019-05-01T23:14:49.855Z,57.40
2019-05-01T23:17:51.488Z,57.40
2019-05-01T23:20:52.845Z,57.30
2019-05-01T23:23:56.983Z,57.70
2019-05-01T23:26:57.359Z,57.70
2019-05-01T23:29:58.704Z,57.70
2019-05-01T23:33:00.081Z,58.30
2019-05-01T23:36:01.541Z,58.30
2019-05-01T23:39:02.918Z,58.40
2019-05-01T23:42:05.239Z,58.30
2019-05-01T23:45:07.558Z,58.40
2019-05-01T23:48:08.952Z,58.40
2019-05-01T23:51:10.296Z,58.40
2019-05-01T23:54:11.661Z,58.30
2019-05-01T23:57:14.926Z,58.30
